createdAt,value
2019-01-12T00:08:48.479Z,90.73
2019-01-12T00:18:53.946Z,90.90
2019-01-12T00:28:59.407Z,89.77
2019-01-12T00:39:07.871Z,48.83
2019-01-12T00:49:13.503Z,48.23
2019-01-12T00:59:19.498Z,51.07
2019-01-12T01:09:25.355Z,47.33
2019-01-12T01:19:30.789Z,45.67
2019-01-12T01:29:36.842Z,41.03
2019-01-12T01:39:42.502Z,43.43
2019-01-12T01:49:47.922Z,39.37
2019-01-12T01:59:54.911Z,41.33
2019-01-12T02:10:00.395Z,39.63
2019-01-12T02:20:06.115Z,39.23
2019-01-12T02:30:19.391Z,35.53
2019-01-12T02:40:24.845Z,38.53
2019-01-12T02:50:30.218Z,33.07
2019-01-12T03:00:35.771Z,32.37
2019-01-12T03:10:41.331Z,32.97
2019-01-12T03:20:46.653Z,30.97
2019-01-12T03:30:52.098Z,29.17
2019-01-12T03:40:57.584Z,27.13
2019-01-12T03:51:03.006Z,29.03
2019-01-12T04:01:08.327Z,26.53
2019-01-12T04:11:13.668Z,26.47
2019-01-12T04:21:19.623Z,25.87
2019-01-12T04:31:25.020Z,24.93
2019-01-12T04:41:30.405Z,24.20
2019-01-12T04:51:36.045Z,24.63
2019-01-12T05:01:41.412Z,22.20
2019-01-12T05:11:47.120Z,22.30
2019-01-12T05:21:54.854Z,21.93
2019-01-12T05:32:00.301Z,21.10
2019-01-12T05:42:05.746Z,20.97
2019-01-12T05:52:11.294Z,20.07
2019-01-12T06:02:16.823Z,20.10
2019-01-12T06:12:22.260Z,19.93
2019-01-12T06:22:27.732Z,18.87
2019-01-12T06:32:35.305Z,17.30
2019-01-12T06:42:40.680Z,17.40
2019-01-12T06:52:47.013Z,17.33
2019-01-12T07:02:52.447Z,17.03
2019-01-12T07:12:57.776Z,17.60
2019-01-12T07:23:03.166Z,16.03
2019-01-12T07:33:08.739Z,16.93
2019-01-12T07:43:14.223Z,16.63
2019-01-12T07:53:19.555Z,15.70
2019-01-12T08:52:20.527Z,13.80
2019-01-12T09:02:25.938Z,13.13
2019-01-12T09:12:32.483Z,13.13
2019-01-12T09:22:37.877Z,12.20
2019-01-12T09:32:43.822Z,12.40
2019-01-12T09:42:49.457Z,11.73
2019-01-12T09:52:55.022Z,11.33
2019-01-12T10:03:01.838Z,11.67
2019-01-12T10:13:07.591Z,10.63
2019-01-12T10:23:12.989Z,11.00
2019-01-12T10:33:18.480Z,11.27
2019-01-12T10:43:23.946Z,10.77
2019-01-12T10:53:29.504Z,9.17
2019-01-12T11:03:37.200Z,7.73
2019-01-12T11:13:43.150Z,9.90
2019-01-12T11:23:48.754Z,10.67
2019-01-12T11:33:54.281Z,10.53
2019-01-12T11:43:59.878Z,8.43
2019-01-12T11:54:06.010Z,9.63
2019-01-12T12:04:11.548Z,10.47
2019-01-12T12:14:17.394Z,7.93
2019-01-12T12:24:23.237Z,8.83
2019-01-12T12:34:28.706Z,9.87
2019-01-12T12:44:35.328Z,8.27
2019-01-12T12:54:40.810Z,10.03
2019-01-12T13:04:46.754Z,8.40
2019-01-12T13:14:52.857Z,9.43
2019-01-12T13:24:58.302Z,12.20
2019-01-12T13:35:04.410Z,8.43
2019-01-12T13:45:16.164Z,8.87
2019-01-12T13:55:22.930Z,9.03
2019-01-12T14:05:28.484Z,10.33
2019-01-12T14:15:34.421Z,12.93
2019-01-12T14:25:40.193Z,15.23
2019-01-12T14:35:45.631Z,15.07
2019-01-12T14:45:51.025Z,8.03
2019-01-12T14:55:56.408Z,7.17
2019-01-12T15:06:01.842Z,12.83
2019-01-12T15:16:08.465Z,14.23
2019-01-12T15:26:13.853Z,12.53
2019-01-12T15:36:19.379Z,151.53
2019-01-12T15:46:24.836Z,157.67
2019-01-12T15:56:30.352Z,124.33
2019-01-12T16:06:35.755Z,110.47
2019-01-12T16:16:41.526Z,105.03
2019-01-12T16:26:47.052Z,271.67
2019-01-12T16:36:54.485Z,105.90
2019-01-12T16:46:59.884Z,74.07
2019-01-12T16:57:05.243Z,70.90
2019-01-12T17:07:10.666Z,62.17
2019-01-12T17:17:17.305Z,64.50
2019-01-12T17:27:22.847Z,57.93
2019-01-12T17:37:28.257Z,54.47
2019-01-12T17:47:34.218Z,53.83
2019-01-12T17:57:39.894Z,50.63
2019-01-12T18:07:47.631Z,50.07
2019-01-12T18:17:53.041Z,44.07
2019-01-12T18:27:58.435Z,47.20
2019-01-12T18:38:03.896Z,43.53
2019-01-12T18:48:09.558Z,39.63
2019-01-12T18:58:14.921Z,37.47
2019-01-12T19:08:20.492Z,36.63
2019-01-12T19:18:26.016Z,35.80
2019-01-12T19:28:31.767Z,31.57
2019-01-12T19:38:38.298Z,34.13
2019-01-12T19:48:43.689Z,30.23
2019-01-12T19:58:49.166Z,28.27
2019-01-12T20:08:55.171Z,31.37
2019-01-12T20:19:01.094Z,29.83
2019-01-12T20:29:06.978Z,28.33
2019-01-12T20:40:03.590Z,29.10
2019-01-12T20:50:33.615Z,26.70
2019-01-12T21:01:07.901Z,25.50
2019-01-12T21:12:41.051Z,24.63
2019-01-12T21:22:46.886Z,23.43
2019-01-12T21:32:52.704Z,23.97
2019-01-12T21:42:59.513Z,20.80
2019-01-12T21:53:05.182Z,22.83
2019-01-12T22:03:11.672Z,22.43
2019-01-12T22:13:18.415Z,22.57
2019-01-12T22:23:24.133Z,17.33
2019-01-12T22:33:30.067Z,20.67
2019-01-12T22:43:37.913Z,18.30
2019-01-12T22:53:43.681Z,17.00
2019-01-12T23:03:50.418Z,22.40
2019-01-12T23:13:56.375Z,16.10
2019-01-12T23:24:02.383Z,15.43
2019-01-12T23:34:08.108Z,15.33
2019-01-12T23:44:14.936Z,13.97
2019-01-12T23:54:20.815Z,12.93
